Meteo Giornale » Osservazioni meteo Italia » Perugia

ore: 04:50 - Osservazioni Meteo Perugia
Lat. 43° 5' N Lon. 12° 30' E Alt. 208 metri s.l.m.

sereno Europe/Rome

18 °C

Sereno

Temp. 24 Ore

17 °C

34 °C

Nord

11.1 Km/h

Dew point 14 °C

Umidità 77 %

Visibilità  10 Km

Il sole sorge alle ore 06:19

Il sole tramonta alle ore 20:06

Data e Ora Cielo e Fenomeni T °C DP °C Um. % Pres. hPa Vis. km Vento km/h
Oggi h: 04:50 sereno Sereno 18 14 77 1018 10 N 11.1
Oggi h: 03:50 sereno Sereno 18 14 77 1018 10 N 9.3
Oggi h: 02:50 sereno Sereno 19 14 72 1018 10 N 3.7
Oggi h: 01:50 sereno Sereno 19 14 72 1018 10 N 5.5
Ieri h: 23:50 sereno Sereno 21 14 64 1018 10 N 9.3
Ieri h: 22:50 sereno Sereno 23 14 56 1018 10 N 3.7
Ieri h: 21:50 sereno Sereno 25 14 50 1017 10 E/NE 7.4
Ieri h: 20:50 sereno Sereno 27 14 44 1016 10 N 5.5
Ieri h: 19:50 sereno Sereno 31 13 33 1016 10 NO 9.3
Ieri h: 18:50 sereno Sereno 33 11 26 1016 10 O/NO 9.3
Ieri h: 17:50 sereno Sereno 34 11 24 1016 10 N 9.3
Ieri h: 16:50 sereno Sereno 34 12 26 1016 10 N 7.4
Ieri h: 15:50 sereno Sereno 34 12 26 1016 10 N/NO 13
Ieri h: 14:50 sereno Sereno 34 12 26 1017 10 O/NO 7.4
Ieri h: 12:50 sereno Sereno 32 9 24 1017 10 N 5.5
Ieri h: 11:50 sereno Sereno 29 14 39 1017 10 N 5.5
Ieri h: 10:50 sereno Sereno 28 16 48 1017 10 N 1.8
Ieri h: 09:50 sereno Sereno 24 15 57 1017 10 N 5.5
Ieri h: 08:50 sereno Sereno 22 16 68 1017 10 N 7.4
Ieri h: 07:50 sereno Sereno 19 15 77 1017 10 N 9.3
Ieri h: 06:50 sereno Sereno 17 15 88 1017 10 N 7.4